Time,TemperatureF,DewpointF,PressureIn,WindDirection,WindDirectionDegrees,WindSpeedMPH,WindSpeedGustMPH,Humidity,HourlyPrecipIn,Conditions,Clouds,dailyrainin,SoftwareType,DateUTC
2013-06-23 00:01:00,61.0,53.0,29.83,SSW,213,2.0,2.0,74,0.00,,,0.00,weatherlink.com 1.10,2013-06-23 07:01:00,
2013-06-23 00:16:00,60.6,53.0,29.82,SSW,194,0.0,5.0,75,0.00,,,0.00,weatherlink.com 1.10,2013-06-23 07:16:00,
2013-06-23 00:31:00,60.6,53.0,29.82,SSW,213,1.0,4.0,75,0.00,,,0.00,weatherlink.com 1.10,2013-06-23 07:31:00,
2013-06-23 00:46:00,60.8,53.0,29.82,SSW,213,4.0,7.0,76,0.00,,,0.00,weatherlink.com 1.10,2013-06-23 07:46:00,
2013-06-23 01:01:00,60.5,54.0,29.82,South,174,2.0,5.0,78,0.00,,,0.00,weatherlink.com 1.10,2013-06-23 08:01:00,
2013-06-23 01:16:00,59.6,54.0,29.82,SW,217,5.0,8.0,81,0.00,,,0.00,weatherlink.com 1.10,2013-06-23 08:16:00,
2013-06-23 01:31:00,58.8,54.0,29.82,SSW,204,1.0,8.0,83,0.00,,,0.00,weatherlink.com 1.10,2013-06-23 08:31:00,
2013-06-23 01:46:00,58.6,54.0,29.82,SSW,201,2.0,8.0,84,0.00,,,0.00,weatherlink.com 1.10,2013-06-23 08:46:00,
2013-06-23 02:01:00,58.8,54.0,29.82,SE,134,1.0,7.0,84,0.00,,,0.00,weatherlink.com 1.10,2013-06-23 09:01:00,
2013-06-23 02:16:00,58.4,54.0,29.82,SW,226,1.0,5.0,84,0.00,,,0.00,weatherlink.com 1.10,2013-06-23 09:16:00,
2013-06-23 02:31:00,58.2,54.0,29.82,SW,232,2.0,5.0,85,0.00,,,0.00,weatherlink.com 1.10,2013-06-23 09:31:00,
2013-06-23 02:46:00,57.8,54.0,29.82,SSW,195,0.0,2.0,86,0.00,,,0.00,weatherlink.com 1.10,2013-06-23 09:46:00,
2013-06-23 03:01:00,57.4,54.0,29.81,NW,325,0.0,3.0,87,0.00,,,0.00,weatherlink.com 1.10,2013-06-23 10:01:00,
2013-06-23 03:16:00,57.1,53.0,29.81,WNW,293,1.0,1.0,87,0.00,,,0.00,weatherlink.com 1.10,2013-06-23 10:16:00,
2013-06-23 03:31:00,56.4,53.0,29.81,WNW,293,0.0,0.0,88,0.00,,,0.00,weatherlink.com 1.10,2013-06-23 10:31:00,
2013-06-23 03:46:00,56.2,53.0,29.81,SW,225,0.0,1.0,89,0.00,,,0.00,weatherlink.com 1.10,2013-06-23 10:46:00,
2013-06-23 04:01:00,56.5,54.0,29.81,SE,139,0.0,0.0,90,0.00,,,0.00,weatherlink.com 1.10,2013-06-23 11:01:00,
2013-06-23 04:16:00,56.6,53.0,29.81,NNW,338,0.0,0.0,88,0.00,,,0.00,weatherlink.com 1.10,2013-06-23 11:16:00,
2013-06-23 04:32:00,56.3,54.0,29.81,WSW,258,0.0,0.0,90,0.00,,,0.00,weatherlink.com 1.10,2013-06-23 11:32:00,
2013-06-23 04:47:00,56.2,54.0,29.81,South,188,0.0,0.0,91,0.00,,,0.00,weatherlink.com 1.10,2013-06-23 11:47:00,
2013-06-23 05:02:00,56.5,54.0,29.81,SSW,193,0.0,0.0,90,0.00,,,0.00,weatherlink.com 1.10,2013-06-23 12:02:00,
2013-06-23 05:17:00,56.8,54.0,29.81,SW,217,0.0,0.0,90,0.00,,,0.00,weatherlink.com 1.10,2013-06-23 12:17:00,
2013-06-23 05:31:00,57.3,55.0,29.81,West,261,1.0,5.0,90,0.00,,,0.00,weatherlink.com 1.10,2013-06-23 12:31:00,
2013-06-23 05:46:00,57.8,55.0,29.81,SW,234,0.0,6.0,90,0.00,,,0.00,weatherlink.com 1.10,2013-06-23 12:46:00,
2013-06-23 06:01:00,58.1,55.0,29.82,SW,217,1.0,6.0,90,0.00,,,0.00,weatherlink.com 1.10,2013-06-23 13:01:00,
2013-06-23 06:16:00,58.3,56.0,29.82,SE,141,0.0,1.0,90,0.00,,,0.00,weatherlink.com 1.10,2013-06-23 13:16:00,
2013-06-23 06:31:00,58.5,56.0,29.82,WSW,258,0.0,1.0,90,0.00,,,0.00,weatherlink.com 1.10,2013-06-23 13:31:00,
2013-06-23 06:46:00,58.4,56.0,29.82,ESE,115,0.0,0.0,90,0.00,,,0.00,weatherlink.com 1.10,2013-06-23 13:46:00,
2013-06-23 07:01:00,59.0,56.0,29.82,SSW,210,0.0,0.0,90,0.00,,,0.00,weatherlink.com 1.10,2013-06-23 14:01:00,
2013-06-23 07:16:00,59.6,56.0,29.82,WSW,251,2.0,4.0,89,0.00,,,0.00,weatherlink.com 1.10,2013-06-23 14:16:00,
2013-06-23 07:31:00,60.4,57.0,29.82,SW,214,4.0,5.0,88,0.00,,,0.00,weatherlink.com 1.10,2013-06-23 14:31:00,
2013-06-23 07:46:00,60.9,57.0,29.82,South,186,3.0,5.0,87,0.00,,,0.00,weatherlink.com 1.10,2013-06-23 14:46:00,
2013-06-23 08:01:00,61.1,57.0,29.82,SW,236,6.0,8.0,87,0.00,,,0.00,weatherlink.com 1.10,2013-06-23 15:01:00,
2013-06-23 08:16:00,60.5,57.0,29.82,SE,139,1.0,7.0,88,0.00,,,0.00,weatherlink.com 1.10,2013-06-23 15:16:00,
2013-06-23 08:31:00,60.5,57.0,29.83,WSW,246,6.0,8.0,89,0.00,,,0.00,weatherlink.com 1.10,2013-06-23 15:31:00,
2013-06-23 08:47:00,59.7,57.0,29.83,SSW,195,6.0,10.0,89,0.00,,,0.00,weatherlink.com 1.10,2013-06-23 15:47:00,
2013-06-23 09:01:00,59.0,56.0,29.83,SSW,203,5.0,12.0,90,0.00,,,0.00,weatherlink.com 1.10,2013-06-23 16:01:00,
2013-06-23 09:16:00,59.4,57.0,29.83,SE,132,5.0,8.0,90,0.00,,,0.00,weatherlink.com 1.10,2013-06-23 16:16:00,
2013-06-23 09:31:00,60.6,57.0,29.83,SW,214,1.0,9.0,87,0.00,,,0.00,weatherlink.com 1.10,2013-06-23 16:31:00,
2013-06-23 09:46:00,61.5,58.0,29.84,SSW,205,2.0,8.0,87,0.00,,,0.00,weatherlink.com 1.10,2013-06-23 16:46:00,
2013-06-23 10:16:00,63.7,59.0,29.84,SW,217,10.0,12.0,83,0.00,,,0.00,weatherlink.com 1.10,2013-06-23 17:16:00,
2013-06-23 10:31:00,64.8,59.0,29.82,ESE,113,3.0,11.0,82,0.00,,,0.00,weatherlink.com 1.10,2013-06-23 17:31:00,
2013-06-23 10:46:00,66.3,60.0,29.83,South,191,5.0,6.0,80,0.00,,,0.00,weatherlink.com 1.10,2013-06-23 17:46:00,
2013-06-23 11:01:00,67.1,60.0,29.83,SSW,195,2.0,8.0,77,0.00,,,0.00,weatherlink.com 1.10,2013-06-23 18:01:00,
2013-06-23 11:16:00,64.2,59.0,29.85,WSW,239,12.0,22.0,84,0.00,,,0.00,weatherlink.com 1.10,2013-06-23 18:16:00,
2013-06-23 11:31:00,64.2,60.0,29.85,SW,222,5.0,14.0,87,0.00,,,0.00,weatherlink.com 1.10,2013-06-23 18:31:00,
2013-06-23 11:46:00,65.4,60.0,29.85,South,183,9.0,13.0,83,0.00,,,0.00,weatherlink.com 1.10,2013-06-23 18:46:00,
2013-06-23 12:01:00,64.9,60.0,29.85,SW,219,7.0,10.0,83,0.00,,,0.00,weatherlink.com 1.10,2013-06-23 19:01:00,
2013-06-23 12:16:00,65.9,60.0,29.84,South,188,6.0,12.0,82,0.00,,,0.00,weatherlink.com 1.10,2013-06-23 19:16:00,
2013-06-23 12:31:00,66.2,60.0,29.84,SSE,162,5.0,13.0,81,0.00,,,0.00,weatherlink.com 1.10,2013-06-23 19:31:00,
2013-06-23 12:46:00,65.6,60.0,29.85,SW,233,6.0,11.0,83,0.00,,,0.00,weatherlink.com 1.10,2013-06-23 19:46:00,
2013-06-23 13:01:00,66.2,61.0,29.84,SW,224,1.0,9.0,82,0.00,,,0.00,weatherlink.com 1.10,2013-06-23 20:01:00,
2013-06-23 13:16:00,66.5,61.0,29.84,WSW,248,3.0,9.0,81,0.00,,,0.00,weatherlink.com 1.10,2013-06-23 20:16:00,
2013-06-23 13:31:00,67.5,62.0,29.83,SW,232,8.0,8.0,81,0.00,,,0.00,weatherlink.com 1.10,2013-06-23 20:31:00,
2013-06-23 13:46:00,67.7,61.0,29.84,SSW,199,5.0,11.0,79,0.00,,,0.00,weatherlink.com 1.10,2013-06-23 20:46:00,
2013-06-23 14:02:00,66.4,61.0,29.84,West,270,4.0,11.0,82,0.00,,,0.00,weatherlink.com 1.10,2013-06-23 21:02:00,
2013-06-23 14:17:00,66.3,61.0,29.83,West,264,2.0,9.0,83,0.00,,,0.00,weatherlink.com 1.10,2013-06-23 21:17:00,
2013-06-23 14:32:00,66.4,61.0,29.83,South,177,5.0,9.0,83,0.00,,,0.00,weatherlink.com 1.10,2013-06-23 21:32:00,
2013-06-23 14:47:00,65.9,61.0,29.83,WSW,238,4.0,11.0,83,0.00,,,0.00,weatherlink.com 1.10,2013-06-23 21:47:00,
2013-06-23 15:02:00,65.2,60.0,29.83,SW,217,6.0,8.0,84,0.00,,,0.00,weatherlink.com 1.10,2013-06-23 22:02:00,
2013-06-23 15:17:00,64.7,61.0,29.83,SW,226,8.0,12.0,86,0.00,,,0.00,weatherlink.com 1.10,2013-06-23 22:17:00,
2013-06-23 15:32:00,65.3,60.0,29.82,South,183,6.0,11.0,84,0.00,,,0.00,weatherlink.com 1.10,2013-06-23 22:32:00,
2013-06-23 15:47:00,66.5,61.0,29.82,SW,219,6.0,10.0,81,0.00,,,0.00,weatherlink.com 1.10,2013-06-23 22:47:00,
2013-06-23 16:02:00,66.7,60.0,29.82,SW,214,6.0,13.0,80,0.00,,,0.00,weatherlink.com 1.10,2013-06-23 23:02:00,
2013-06-23 16:17:00,65.6,60.0,29.82,SW,222,3.0,11.0,82,0.00,,,0.00,weatherlink.com 1.10,2013-06-23 23:17:00,
2013-06-23 16:32:00,65.6,60.0,29.83,SW,231,5.0,10.0,82,0.00,,,0.00,weatherlink.com 1.10,2013-06-23 23:32:00,
2013-06-23 16:47:00,64.9,60.0,29.83,SSW,212,7.0,9.0,83,0.00,,,0.00,weatherlink.com 1.10,2013-06-23 23:47:00,
2013-06-23 17:02:00,64.9,60.0,29.82,SW,214,6.0,9.0,84,0.00,,,0.00,weatherlink.com 1.10,2013-06-24 00:02:00,
2013-06-23 17:17:00,65.3,60.0,29.82,SW,236,5.0,8.0,83,0.00,,,0.00,weatherlink.com 1.10,2013-06-24 00:17:00,
2013-06-23 17:32:00,65.2,60.0,29.82,WSW,242,4.0,9.0,82,0.00,,,0.00,weatherlink.com 1.10,2013-06-24 00:32:00,
2013-06-23 17:47:00,65.5,60.0,29.81,WSW,243,5.0,9.0,82,0.00,,,0.00,weatherlink.com 1.10,2013-06-24 00:47:00,
2013-06-23 18:02:00,66.3,60.0,29.80,SW,224,4.0,10.0,81,0.00,,,0.00,weatherlink.com 1.10,2013-06-24 01:02:00,
2013-06-23 18:17:00,66.7,60.0,29.81,South,183,7.0,12.0,80,0.00,,,0.00,weatherlink.com 1.10,2013-06-24 01:17:00,
2013-06-23 18:32:00,65.9,60.0,29.81,West,267,3.0,11.0,82,0.00,,,0.00,weatherlink.com 1.10,2013-06-24 01:32:00,
2013-06-23 18:47:00,66.2,60.0,29.80,SSW,201,5.0,10.0,81,0.00,,,0.00,weatherlink.com 1.10,2013-06-24 01:47:00,
2013-06-23 19:02:00,64.9,60.0,29.80,SSW,211,5.0,11.0,83,0.00,,,0.00,weatherlink.com 1.10,2013-06-24 02:02:00,
2013-06-23 19:17:00,63.3,59.0,29.80,SSW,194,5.0,13.0,86,0.00,,,0.00,weatherlink.com 1.10,2013-06-24 02:17:00,
2013-06-23 19:32:00,63.0,59.0,29.81,WSW,243,3.0,10.0,87,0.00,,,0.00,weatherlink.com 1.10,2013-06-24 02:32:00,
2013-06-23 19:47:00,62.2,59.0,29.80,SW,217,7.0,10.0,88,0.00,,,0.00,weatherlink.com 1.10,2013-06-24 02:47:00,
2013-06-23 20:02:00,61.7,59.0,29.80,SSW,204,5.0,11.0,90,0.00,,,0.00,weatherlink.com 1.10,2013-06-24 03:02:00,
2013-06-23 20:17:00,61.4,59.0,29.81,SW,225,1.0,9.0,90,0.00,,,0.00,weatherlink.com 1.10,2013-06-24 03:17:00,
2013-06-23 20:32:00,61.0,58.0,29.81,SE,134,1.0,6.0,91,0.00,,,0.00,weatherlink.com 1.10,2013-06-24 03:32:00,
2013-06-23 20:47:00,60.4,58.0,29.82,WNW,301,2.0,7.0,91,0.00,,,0.00,weatherlink.com 1.10,2013-06-24 03:47:00,
2013-06-23 21:02:00,59.4,57.0,29.81,SW,225,4.0,8.0,92,0.00,,,0.00,weatherlink.com 1.10,2013-06-24 04:02:00,
2013-06-23 21:17:00,59.0,57.0,29.81,SSW,208,6.0,7.0,94,0.00,,,0.00,weatherlink.com 1.10,2013-06-24 04:17:00,
2013-06-23 21:32:00,58.6,57.0,29.81,SW,215,2.0,7.0,94,0.00,,,0.00,weatherlink.com 1.10,2013-06-24 04:32:00,
2013-06-23 21:47:00,58.4,57.0,29.82,SSW,203,4.0,7.0,94,0.00,,,0.00,weatherlink.com 1.10,2013-06-24 04:47:00,
2013-06-23 22:02:00,58.1,57.0,29.82,SSW,207,4.0,8.0,95,0.00,,,0.00,weatherlink.com 1.10,2013-06-24 05:02:00,
2013-06-23 22:17:00,57.8,56.0,29.82,SW,221,3.0,9.0,95,0.00,,,0.00,weatherlink.com 1.10,2013-06-24 05:17:00,
2013-06-23 22:32:00,57.9,56.0,29.82,SW,235,4.0,8.0,94,0.00,,,0.00,weatherlink.com 1.10,2013-06-24 05:32:00,
2013-06-23 23:02:00,57.4,56.0,29.82,SSW,211,3.0,7.0,95,0.00,,,0.00,weatherlink.com 1.10,2013-06-24 06:02:00,
2013-06-23 23:17:00,57.1,56.0,29.82,SSW,198,3.0,8.0,95,0.00,,,0.00,weatherlink.com 1.10,2013-06-24 06:17:00,
2013-06-23 23:32:00,56.9,56.0,29.82,WSW,245,2.0,6.0,95,0.00,,,0.00,weatherlink.com 1.10,2013-06-24 06:32:00,
2013-06-23 23:47:00,56.9,56.0,29.82,SW,233,4.0,5.0,95,0.00,,,0.00,weatherlink.com 1.10,2013-06-24 06:47:00,